Blairstown, New Jersey
Current Conditions -  °F | °C
As of 1:53 AM on Monday 24 Nov 2014 (Local Time) from KFWN Reporting Station
Light Rain Light Rain  
Wind Chill: 43°   Ceiling: 1000
Heat Index: 43°   Visibility: 6mi
Dew Point: 37°   Wind: 0mph
Humidity: 80%   Direction: NA
Pressure: 29.86"   Gusts: NA
Location:  40.98°N, 74.96°W
Report Text: KFWN 240653Z AUTO 00000KT 6SM -RA OVC010 06/03 A2986 RMK AO2 RAB02 SLP113 P0000 T00610028
Loading
Personal Weather Stations






























Interactive Weather Map New forecast layout! Learn more

10-Day Weather Forecast

Advertisements
Track Severe Weather on mobile